Hauptseite
METAR-TAF:

METAR-TAF

Flughäfen :

Militärflugplatz Volkel

Uden, Niederlande

Breite: 51-39N, Länge: 005-42E, Höhe: 22 m

Beobachtung

Neuester Wetterbericht von vor 21 Minuten, um 17:55 UTC
Wind 12 kt aus Süd/Südwest, variierte zwischen Süd/Südost und West/Südwest
Temperatur 17°C
Luftfeuchtigkeit 88%
Luftdruck 1014 hPa
Sichtweite 10 km oder mehr
Leicht bewölkt in der Höhe von 3900 ft

METAR: EHVK 191755Z AUTO 20012KT 160V240 9999 FEW039 17/15 Q1014 BLU

Zeit: 20:16 (18:16 UTC)

Prognose

Neuester Wetterbericht von vor 2 Stunden und 6 Minuten, um 16:10 UTC
Gültige Prognose vom 19 um 17 UTC bis 20 um 05 UTC
Wind 10 kt aus Süd
Sichtweite 10 km oder mehr
Leicht bewölkt in der Höhe von 1300 ft
Aufgelockert bewölkt in der Höhe von 3000 ft

TAF: EHVK 191610Z 1917/2005 19010KT 9999 FEW013 SCT030

Wetterbeobachtungen und Prognosen von mehr als 4000 Flughäfen (METAR und TAF Bericht).

Die verfügbaren Stationen werden durch gelbe und rote Markierungen auf der Karte dargestellt.

Führen Sie die Maus auf sie, um den Namen der Station zu sehen.

Darauf klicken, um die Beobachtung von Wetterbeobachtungen und Prognosen zu sehen.

Um die Karte zu ändern : klicken Sie auf den grünen Tasten mit einem schwarzen Kreuz Zum Vergrößern, auf den grünen Button mit einem Gedankenstrich zu verkleinern, oder auf die grünen Pfeile für benachbarte Karten.


METAR-TAF: